Time;durP1;ratioP1;P1;durP2;ratioP2;P2;SDS_P1;SDS_P2;PMS_P1;PMS_P2;Temp;Humidity;BMP_temperature;BMP_pressure;BME280_temperature;BME280_humidity;BME280_pressure;Samples;Min_cycle;Max_cycle;Signal;HPM_P1;HPM_P2
2023/05/04 00:02:21;;;;;;;4.85;4.18;;;12.10;99.90;;;;;;6147458;23;20441;-78
2023/05/04 00:04:51;;;;;;;5.28;4.80;;;12.00;99.90;;;;;;6143200;23;20260;-78
2023/05/04 00:07:19;;;;;;;4.90;4.50;;;12.00;99.90;;;;;;6147322;23;20236;-78
2023/05/04 00:09:46;;;;;;;5.03;4.63;;;12.00;99.90;;;;;;6146338;23;20437;-78
2023/05/04 00:12:13;;;;;;;5.88;5.30;;;12.00;99.90;;;;;;6147892;23;20619;-78
2023/05/04 00:14:40;;;;;;;5.13;4.63;;;11.90;99.90;;;;;;6143787;23;20230;-78
2023/05/04 00:17:08;;;;;;;6.43;5.00;;;11.90;99.90;;;;;;6146844;23;20222;-78
2023/05/04 00:19:36;;;;;;;5.78;5.13;;;11.80;99.90;;;;;;6146472;23;20190;-78
2023/05/04 00:22:04;;;;;;;5.70;5.20;;;11.80;99.90;;;;;;6148283;23;20198;-78
2023/05/04 00:24:31;;;;;;;5.75;5.15;;;11.80;99.90;;;;;;6142236;23;20219;-78
2023/05/04 00:26:58;;;;;;;5.53;5.07;;;11.80;99.90;;;;;;6147919;23;20226;-78
2023/05/04 00:29:25;;;;;;;5.90;5.40;;;11.70;99.90;;;;;;6144353;23;20665;-78
2023/05/04 00:31:52;;;;;;;6.13;5.53;;;11.70;99.90;;;;;;6150323;23;20194;-78
2023/05/04 00:34:19;;;;;;;5.03;4.60;;;11.70;99.90;;;;;;6145317;23;20260;-78
2023/05/04 00:36:46;;;;;;;5.80;5.30;;;11.70;99.90;;;;;;6148474;23;20551;-78
2023/05/04 00:39:14;;;;;;;5.72;5.22;;;11.70;99.90;;;;;;6147458;23;20192;-78
2023/05/04 00:41:41;;;;;;;5.32;4.93;;;11.70;99.90;;;;;;6146892;23;20187;-78
2023/05/04 00:44:08;;;;;;;6.00;5.47;;;11.70;99.90;;;;;;6145364;23;20238;-78
2023/05/04 00:46:37;;;;;;;5.70;5.22;;;11.70;99.90;;;;;;6146813;23;20190;-77
2023/05/04 00:49:06;;;;;;;6.20;5.60;;;11.70;99.90;;;;;;6148002;23;20214;-78
2023/05/04 00:51:33;;;;;;;5.53;5.03;;;11.60;99.90;;;;;;6147629;23;20600;-78
2023/05/04 00:54:00;;;;;;;6.10;5.60;;;11.60;99.90;;;;;;6146231;23;20187;-78
2023/05/04 00:56:31;;;;;;;6.60;6.00;;;11.60;99.90;;;;;;6146132;23;20240;-78
2023/05/04 00:58:58;;;;;;;6.68;5.20;;;11.60;99.90;;;;;;6147437;23;20187;-78
2023/05/04 01:01:25;;;;;;;6.15;5.65;;;11.50;99.90;;;;;;6149924;23;20662;-78
2023/05/04 01:03:54;;;;;;;6.30;5.70;;;11.50;99.90;;;;;;6144225;23;20190;-78
2023/05/04 01:06:29;;;;;;;5.78;5.28;;;11.40;99.90;;;;;;6138618;23;20678;-78
2023/05/04 01:08:59;;;;;;;7.22;6.53;;;11.40;99.90;;;;;;6147060;23;20194;-78
2023/05/04 01:11:33;;;;;;;6.93;5.22;;;11.40;99.90;;;;;;6146932;23;20203;-78
2023/05/04 01:14:02;;;;;;;5.97;5.30;;;11.40;99.90;;;;;;6150688;23;20313;-78
2023/05/04 01:16:29;;;;;;;5.45;5.00;;;11.30;99.90;;;;;;6158062;23;20218;-78
2023/05/04 01:18:56;;;;;;;5.70;5.25;;;11.30;99.90;;;;;;6150181;23;20203;-78
2023/05/04 01:21:23;;;;;;;5.95;5.35;;;11.30;99.90;;;;;;6144545;23;20187;-78
2023/05/04 01:23:52;;;;;;;5.30;4.90;;;11.30;99.90;;;;;;6145142;23;20269;-78
2023/05/04 01:26:25;;;;;;;8.55;6.20;;;11.20;99.90;;;;;;6147504;23;20277;-78
2023/05/04 01:29:00;;;;;;;5.55;5.05;;;11.20;99.90;;;;;;6148533;23;20724;-77
2023/05/04 01:31:28;;;;;;;6.10;5.60;;;11.10;99.90;;;;;;6141334;23;20182;-78
2023/05/04 01:33:55;;;;;;;6.30;5.70;;;11.00;99.90;;;;;;6142805;23;20192;-78
2023/05/04 01:36:24;;;;;;;6.80;6.10;;;11.00;99.90;;;;;;6137745;23;20240;-78
2023/05/04 01:38:54;;;;;;;7.07;5.88;;;10.90;99.90;;;;;;6149869;23;20191;-77
2023/05/04 01:41:22;;;;;;;9.57;6.40;;;10.80;99.90;;;;;;6137029;23;20191;-77
2023/05/04 01:43:49;;;;;;;6.70;6.05;;;10.80;99.90;;;;;;6149762;23;20248;-78
2023/05/04 01:46:16;;;;;;;6.30;5.70;;;10.70;99.90;;;;;;6147164;23;20197;-78
2023/05/04 01:48:43;;;;;;;6.30;5.70;;;10.60;99.90;;;;;;6147133;23;20273;-77
2023/05/04 01:51:10;;;;;;;7.30;5.53;;;10.60;99.90;;;;;;6147559;23;20270;-77
2023/05/04 01:53:37;;;;;;;5.75;5.25;;;10.50;99.90;;;;;;6146628;23;20723;-77
2023/05/04 01:56:06;;;;;;;7.55;6.32;;;10.50;99.90;;;;;;6148366;23;20293;-77
2023/05/04 01:58:33;;;;;;;6.32;5.80;;;10.50;99.90;;;;;;6148733;23;20207;-77
2023/05/04 02:01:00;;;;;;;6.72;6.18;;;10.50;99.90;;;;;;6148145;23;20218;-77
2023/05/04 02:03:27;;;;;;;6.35;5.75;;;10.50;99.90;;;;;;6147242;23;20195;-78
2023/05/04 02:05:54;;;;;;;7.10;6.50;;;10.50;99.90;;;;;;6140343;23;20230;-78
2023/05/04 02:08:21;;;;;;;6.60;5.88;;;10.50;99.90;;;;;;6143887;23;20287;-78
2023/05/04 02:10:48;;;;;;;5.78;5.28;;;10.50;99.90;;;;;;6149371;23;20277;-77
2023/05/04 02:13:17;;;;;;;7.05;6.10;;;10.50;99.90;;;;;;6147921;23;20215;-78
2023/05/04 02:15:44;;;;;;;7.20;6.60;;;10.50;99.90;;;;;;6149416;23;20301;-78
2023/05/04 02:18:11;;;;;;;6.35;5.85;;;10.40;99.90;;;;;;6157715;23;20249;-77
2023/05/04 02:20:38;;;;;;;6.78;6.18;;;10.40;99.90;;;;;;6148665;23;20194;-77
2023/05/04 02:23:05;;;;;;;7.53;6.75;;;10.30;99.90;;;;;;6144659;23;20226;-77
2023/05/04 02:25:32;;;;;;;7.07;6.47;;;10.30;99.90;;;;;;6144756;23;20705;-78
2023/05/04 02:27:59;;;;;;;7.18;6.63;;;10.20;99.90;;;;;;6147488;23;20202;-78
2023/05/04 02:30:27;;;;;;;6.70;6.10;;;10.10;99.90;;;;;;6151932;23;20195;-78
2023/05/04 02:32:55;;;;;;;7.65;6.72;;;10.10;99.90;;;;;;6148214;23;20237;-77
2023/05/04 02:35:22;;;;;;;7.13;6.53;;;10.00;99.90;;;;;;6145844;23;20238;-77
2023/05/04 02:37:49;;;;;;;7.22;6.70;;;10.00;99.90;;;;;;6133695;23;20289;-78
2023/05/04 02:40:16;;;;;;;7.60;6.93;;;10.00;99.90;;;;;;6148263;23;20316;-78
2023/05/04 02:42:43;;;;;;;6.55;6.05;;;10.00;99.90;;;;;;6148903;23;20290;-78
2023/05/04 02:45:11;;;;;;;7.68;6.97;;;10.00;99.90;;;;;;6143781;23;20271;-78
2023/05/04 02:47:39;;;;;;;6.97;6.38;;;10.10;99.90;;;;;;6147683;23;20267;-77
2023/05/04 02:50:07;;;;;;;9.18;8.27;;;10.10;99.90;;;;;;6148525;23;20274;-77
2023/05/04 02:52:34;;;;;;;8.32;7.15;;;10.10;99.90;;;;;;6150715;23;20190;-77
2023/05/04 02:55:02;;;;;;;7.47;6.78;;;10.10;99.90;;;;;;6145070;23;20210;-78
2023/05/04 02:57:29;;;;;;;8.23;7.38;;;10.10;99.90;;;;;;6148555;23;20616;-78
2023/05/04 02:59:55;;;;;;;8.02;7.30;;;10.10;99.90;;;;;;6148618;23;20214;-77
2023/05/04 03:02:23;;;;;;;8.55;7.30;;;10.10;99.90;;;;;;6148795;23;20273;-78
2023/05/04 03:04:51;;;;;;;10.23;8.38;;;10.10;99.90;;;;;;6147446;23;20289;-77
2023/05/04 03:07:18;;;;;;;8.77;8.05;;;10.10;99.90;;;;;;6144022;23;20267;-77
2023/05/04 03:09:45;;;;;;;8.20;7.47;;;10.10;99.90;;;;;;6136629;23;20247;-78
2023/05/04 03:12:13;;;;;;;8.23;7.50;;;10.10;99.90;;;;;;6141817;23;20577;-77
2023/05/04 03:14:39;;;;;;;8.02;7.32;;;10.10;99.90;;;;;;6144530;23;20313;-77
2023/05/04 03:17:07;;;;;;;8.75;7.70;;;10.10;99.90;;;;;;6148368;23;20686;-77
2023/05/04 03:19:34;;;;;;;10.60;8.65;;;10.10;99.90;;;;;;6146472;23;20198;-77
2023/05/04 03:22:02;;;;;;;9.00;8.10;;;10.10;99.90;;;;;;6148540;23;20233;-78
2023/05/04 03:24:29;;;;;;;9.02;8.23;;;10.00;99.90;;;;;;6147443;23;20263;-78
2023/05/04 03:26:56;;;;;;;8.90;8.10;;;10.10;99.90;;;;;;6150115;23;20262;-77
2023/05/04 03:29:23;;;;;;;9.30;8.50;;;10.00;99.90;;;;;;6155468;23;20193;-77
2023/05/04 03:31:50;;;;;;;9.75;8.85;;;10.10;99.90;;;;;;6152008;23;20194;-78
2023/05/04 03:34:20;;;;;;;8.88;8.00;;;10.00;99.90;;;;;;6145502;23;20674;-78
2023/05/04 03:36:47;;;;;;;8.85;8.00;;;10.00;99.90;;;;;;6146185;23;20198;-77
2023/05/04 03:39:16;;;;;;;8.63;7.93;;;10.00;99.90;;;;;;6142971;23;20607;-79
2023/05/04 03:41:43;;;;;;;9.05;8.25;;;10.00;99.90;;;;;;6138238;23;20274;-79
2023/05/04 03:44:10;;;;;;;9.30;8.50;;;10.00;99.90;;;;;;6145968;23;20686;-79
2023/05/04 03:46:37;;;;;;;9.48;8.57;;;9.90;99.90;;;;;;6153483;23;20266;-79
2023/05/04 03:49:04;;;;;;;9.38;8.57;;;9.90;99.90;;;;;;6146223;23;20191;-79
2023/05/04 03:51:31;;;;;;;8.85;7.95;;;9.90;99.90;;;;;;6146110;23;20244;-77
2023/05/04 03:53:58;;;;;;;9.38;8.45;;;9.80;99.90;;;;;;6147552;23;20238;-78
2023/05/04 03:56:27;;;;;;;9.05;8.25;;;9.80;99.90;;;;;;6147323;23;20273;-78
2023/05/04 03:58:54;;;;;;;8.57;7.85;;;9.80;99.90;;;;;;6152441;23;20224;-76
2023/05/04 04:01:21;;;;;;;9.50;8.60;;;9.70;99.90;;;;;;6145051;23;20197;-77
2023/05/04 04:03:48;;;;;;;9.88;7.97;;;9.70;99.90;;;;;;6146023;23;20213;-77
2023/05/04 04:06:15;;;;;;;9.10;8.20;;;9.70;99.90;;;;;;6143295;23;20233;-77
2023/05/04 04:08:42;;;;;;;9.05;8.20;;;9.70;99.90;;;;;;6144729;23;20175;-78
2023/05/04 04:11:09;;;;;;;8.27;7.47;;;9.70;99.90;;;;;;6146784;23;20656;-77
2023/05/04 04:13:37;;;;;;;9.45;8.65;;;9.70;99.90;;;;;;6141113;23;20264;-78
2023/05/04 04:16:05;;;;;;;8.48;7.78;;;9.70;99.90;;;;;;6147057;23;20193;-78
2023/05/04 04:18:32;;;;;;;8.73;7.85;;;9.70;99.90;;;;;;6143590;23;20221;-79
2023/05/04 04:20:59;;;;;;;8.80;8.00;;;9.70;99.90;;;;;;6145559;23;20537;-78
2023/05/04 04:23:26;;;;;;;8.95;8.07;;;9.70;99.90;;;;;;6146980;23;20311;-78
2023/05/04 04:25:53;;;;;;;9.43;8.52;;;9.70;99.90;;;;;;6138310;23;20286;-78
2023/05/04 04:28:21;;;;;;;8.88;8.07;;;9.60;99.90;;;;;;6151124;23;20310;-76
2023/05/04 04:30:50;;;;;;;9.52;8.73;;;9.60;99.90;;;;;;6127205;23;20190;-79
2023/05/04 04:33:18;;;;;;;9.90;8.93;;;9.60;99.90;;;;;;6133732;23;20430;-83
2023/05/04 04:35:45;;;;;;;9.80;8.88;;;9.60;99.90;;;;;;6137817;23;20187;-82
2023/05/04 04:38:12;;;;;;;9.60;8.70;;;9.60;99.90;;;;;;6148301;23;20213;-82
2023/05/04 04:40:39;;;;;;;10.65;9.55;;;9.70;99.90;;;;;;6134897;23;20250;-77
2023/05/04 04:43:06;;;;;;;10.25;9.18;;;9.70;99.90;;;;;;6141976;23;20254;-81
2023/05/04 04:45:34;;;;;;;9.98;8.95;;;9.90;99.90;;;;;;6144762;23;20277;-79
2023/05/04 04:48:03;;;;;;;9.05;8.25;;;9.70;99.90;;;;;;6149583;23;20186;-79
2023/05/04 04:50:31;;;;;;;9.48;8.68;;;9.80;99.90;;;;;;6136666;23;20190;-79
2023/05/04 04:52:58;;;;;;;10.23;9.30;;;9.50;99.90;;;;;;6130822;23;20286;-78
2023/05/04 04:55:25;;;;;;;9.40;8.50;;;9.70;99.90;;;;;;6134810;23;20238;-78
2023/05/04 04:57:53;;;;;;;9.63;8.73;;;9.70;99.90;;;;;;6143529;23;20229;-78
2023/05/04 05:00:22;;;;;;;9.60;8.70;;;9.70;99.90;;;;;;6143905;23;20187;-79
2023/05/04 05:02:49;;;;;;;9.63;8.75;;;9.60;99.90;;;;;;6136618;23;20203;-79
2023/05/04 05:05:18;;;;;;;9.60;8.52;;;9.60;99.90;;;;;;6146904;23;20212;-79
2023/05/04 05:07:46;;;;;;;9.68;8.88;;;9.60;99.90;;;;;;6144525;23;20195;-79
2023/05/04 05:10:13;;;;;;;10.35;9.45;;;9.60;99.90;;;;;;6145971;23;20269;-79
2023/05/04 05:12:40;;;;;;;10.25;9.35;;;9.50;99.90;;;;;;6146937;23;20191;-79
2023/05/04 05:15:08;;;;;;;10.40;9.50;;;9.50;99.90;;;;;;6147000;23;20203;-80
2023/05/04 05:17:36;;;;;;;9.65;8.75;;;9.60;99.90;;;;;;6145463;23;20558;-79
2023/05/04 05:20:04;;;;;;;10.00;9.02;;;9.60;99.90;;;;;;6146691;23;20259;-79
2023/05/04 05:22:32;;;;;;;10.13;9.23;;;9.60;99.90;;;;;;6142836;23;20255;-79
2023/05/04 05:24:59;;;;;;;10.55;9.48;;;9.60;99.90;;;;;;6144359;23;20232;-78
2023/05/04 05:27:26;;;;;;;10.40;9.40;;;9.60;99.90;;;;;;6129476;23;20610;-78
2023/05/04 05:29:53;;;;;;;9.85;9.05;;;9.60;99.90;;;;;;6135283;23;20187;-79
2023/05/04 05:32:20;;;;;;;10.00;9.00;;;9.70;99.90;;;;;;6143085;23;20273;-78
2023/05/04 05:34:47;;;;;;;11.57;9.55;;;9.70;99.90;;;;;;6143476;23;20210;-79
2023/05/04 05:37:14;;;;;;;10.45;9.45;;;9.80;99.90;;;;;;6146318;23;20178;-78
2023/05/04 05:39:43;;;;;;;10.00;9.00;;;9.90;99.90;;;;;;6146741;23;20210;-78
2023/05/04 05:42:10;;;;;;;9.13;8.32;;;9.90;99.90;;;;;;6143374;23;20187;-79
2023/05/04 05:44:37;;;;;;;9.63;8.82;;;10.00;99.90;;;;;;6141109;23;20260;-76
2023/05/04 05:47:04;;;;;;;9.50;8.80;;;10.10;99.90;;;;;;6139598;23;20218;-79
2023/05/04 05:49:31;;;;;;;9.57;8.68;;;10.20;99.90;;;;;;6142322;23;20194;-79
2023/05/04 05:51:59;;;;;;;9.52;8.73;;;10.30;99.90;;;;;;6144754;23;20638;-79
2023/05/04 05:54:26;;;;;;;10.30;9.43;;;10.30;99.90;;;;;;6136113;23;20207;-79
2023/05/04 05:56:54;;;;;;;10.48;9.00;;;10.40;99.90;;;;;;6137994;23;20186;-79
2023/05/04 05:59:21;;;;;;;10.85;9.95;;;10.60;99.90;;;;;;6139866;23;20218;-79
2023/05/04 06:01:49;;;;;;;10.45;9.55;;;10.60;99.90;;;;;;6142300;23;20187;-79
2023/05/04 06:04:16;;;;;;;10.65;9.55;;;10.70;99.90;;;;;;6146872;23;20678;-80
2023/05/04 06:06:45;;;;;;;11.10;10.00;;;10.90;99.90;;;;;;6148241;23;20217;-79
2023/05/04 06:09:12;;;;;;;11.10;10.10;;;10.90;99.90;;;;;;6147401;23;20229;-79
2023/05/04 06:11:39;;;;;;;10.95;10.02;;;11.00;99.90;;;;;;6146206;23;20646;-80
2023/05/04 06:14:08;;;;;;;11.00;10.00;;;11.20;99.90;;;;;;6146863;23;20211;-79
2023/05/04 06:16:35;;;;;;;10.88;9.88;;;11.30;99.90;;;;;;6143550;23;20286;-80
2023/05/04 06:19:02;;;;;;;12.25;11.25;;;11.40;99.90;;;;;;6144589;23;20214;-79
2023/05/04 06:21:30;;;;;;;12.45;11.25;;;11.60;99.90;;;;;;6138270;23;20632;-80
2023/05/04 06:23:56;;;;;;;11.40;10.40;;;11.70;99.90;;;;;;6144370;23;20207;-80
2023/05/04 06:26:24;;;;;;;11.90;10.80;;;11.80;99.90;;;;;;6136192;23;20502;-80
2023/05/04 06:28:51;;;;;;;11.77;10.77;;;11.90;99.90;;;;;;6147042;23;20212;-80
2023/05/04 06:31:19;;;;;;;12.13;11.02;;;12.00;99.90;;;;;;6138247;23;20788;-80
2023/05/04 06:33:47;;;;;;;12.33;11.33;;;12.20;99.90;;;;;;6147608;23;20251;-80
2023/05/04 06:36:14;;;;;;;12.80;11.80;;;12.30;99.90;;;;;;6146667;23;20578;-79
2023/05/04 06:38:41;;;;;;;11.20;10.30;;;12.40;99.90;;;;;;6147277;23;20984;-79
2023/05/04 06:41:08;;;;;;;12.13;11.03;;;12.50;99.90;;;;;;6145147;23;20428;-80
2023/05/04 06:43:35;;;;;;;12.47;11.40;;;12.50;99.90;;;;;;6147834;23;20990;-79
2023/05/04 06:46:02;;;;;;;12.83;11.70;;;12.60;99.90;;;;;;6145128;23;20435;-79
2023/05/04 06:48:31;;;;;;;12.87;11.57;;;12.70;99.90;;;;;;6140818;23;20445;-79
2023/05/04 06:50:59;;;;;;;11.87;10.87;;;12.80;99.90;;;;;;6144318;23;20443;-79
2023/05/04 06:53:26;;;;;;;11.90;10.80;;;12.90;99.90;;;;;;6147330;23;20975;-79
2023/05/04 06:55:53;;;;;;;11.57;10.57;;;13.00;99.90;;;;;;6145589;23;20443;-79
2023/05/04 06:58:20;;;;;;;13.33;12.23;;;13.20;99.90;;;;;;6146908;23;20540;-79
2023/05/04 07:00:47;;;;;;;12.57;11.40;;;13.30;99.90;;;;;;6141703;23;20433;-79
2023/05/04 07:03:14;;;;;;;13.03;11.77;;;13.40;99.90;;;;;;6142175;23;20450;-79
2023/05/04 07:05:44;;;;;;;12.93;11.63;;;13.50;99.90;;;;;;6141184;23;20435;-79
2023/05/04 07:08:11;;;;;;;12.40;11.30;;;13.70;99.90;;;;;;6144236;23;20430;-80
2023/05/04 07:10:38;;;;;;;12.80;11.60;;;14.00;99.90;;;;;;6144355;23;20496;-80
2023/05/04 07:13:07;;;;;;;11.47;10.50;;;14.30;99.90;;;;;;6144198;23;20987;-80
2023/05/04 07:15:34;;;;;;;12.03;10.93;;;14.60;99.90;;;;;;6144014;23;20443;-80
2023/05/04 07:18:01;;;;;;;11.90;11.00;;;14.80;99.90;;;;;;6143559;23;20436;-80
2023/05/04 07:20:28;;;;;;;12.40;11.40;;;15.00;99.90;;;;;;6136384;23;20432;-81
2023/05/04 07:22:57;;;;;;;11.57;10.57;;;15.30;99.90;;;;;;6135815;23;20944;-80
2023/05/04 07:25:24;;;;;;;13.50;11.13;;;15.60;99.90;;;;;;6146166;23;20454;-80
2023/05/04 07:27:52;;;;;;;11.07;10.03;;;15.90;99.90;;;;;;6146177;23;20437;-80
2023/05/04 07:30:19;;;;;;;12.43;11.10;;;16.10;99.90;;;;;;6139564;23;20981;-79
2023/05/04 07:32:46;;;;;;;11.90;11.00;;;16.40;99.90;;;;;;6145253;23;20956;-80
2023/05/04 07:35:14;;;;;;;11.73;10.83;;;16.60;99.90;;;;;;6145516;23;20445;-79
2023/05/04 07:37:41;;;;;;;12.00;10.97;;;16.90;99.90;;;;;;6147244;23;20445;-80
2023/05/04 07:40:10;;;;;;;11.30;10.30;;;16.70;99.90;;;;;;6144760;23;20476;-80
2023/05/04 07:42:37;;;;;;;11.00;10.00;;;16.70;99.90;;;;;;6147094;23;20440;-80
2023/05/04 07:45:07;;;;;;;11.77;10.67;;;16.90;99.90;;;;;;6146893;23;20478;-80
2023/05/04 07:47:34;;;;;;;11.33;10.23;;;16.80;99.90;;;;;;6146850;23;20432;-80
2023/05/04 07:50:01;;;;;;;12.83;10.60;;;17.00;99.90;;;;;;6144189;23;20430;-80
2023/05/04 07:52:28;;;;;;;10.83;9.93;;;17.30;99.90;;;;;;6144945;23;20425;-80
2023/05/04 07:54:55;;;;;;;10.53;9.57;;;17.50;99.90;;;;;;6147774;23;20449;-80
2023/05/04 07:57:24;;;;;;;10.33;9.37;;;17.50;99.90;;;;;;6141825;23;21315;-80
2023/05/04 07:59:54;;;;;;;9.33;8.53;;;17.70;99.90;;;;;;6146494;23;20452;-80
2023/05/04 08:02:21;;;;;;;9.53;8.07;;;17.90;99.90;;;;;;6135546;23;20934;-80
2023/05/04 08:04:48;;;;;;;11.30;8.37;;;18.20;99.90;;;;;;6143121;23;20489;-80
2023/05/04 08:07:15;;;;;;;14.43;8.60;;;18.50;99.90;;;;;;6144063;23;20436;-80
2023/05/04 08:09:43;;;;;;;11.60;7.90;;;18.70;99.90;;;;;;6141388;23;20491;-80
2023/05/04 08:12:11;;;;;;;8.03;7.40;;;18.80;99.90;;;;;;6141058;23;20445;-79
2023/05/04 08:14:39;;;;;;;12.10;7.60;;;18.90;99.90;;;;;;6140650;23;20968;-79
2023/05/04 08:17:06;;;;;;;8.07;7.37;;;18.90;99.90;;;;;;6139385;23;20436;-80
2023/05/04 08:19:34;;;;;;;6.90;6.30;;;19.00;99.90;;;;;;6144378;23;20510;-79
2023/05/04 08:22:01;;;;;;;7.10;6.60;;;19.00;99.90;;;;;;6142639;23;20926;-80
2023/05/04 08:24:30;;;;;;;7.07;6.47;;;19.20;99.90;;;;;;6138301;23;20532;-79
2023/05/04 08:26:58;;;;;;;7.80;7.10;;;18.80;99.90;;;;;;6144977;23;20466;-79
2023/05/04 08:29:25;;;;;;;7.03;6.53;;;18.80;99.90;;;;;;6138202;23;20437;-79
2023/05/04 08:31:56;;;;;;;7.53;6.87;;;18.90;99.90;;;;;;6145278;23;20504;-80
2023/05/04 08:34:23;;;;;;;12.13;7.60;;;19.20;99.90;;;;;;6144782;23;21050;-80
2023/05/04 08:36:51;;;;;;;10.07;7.33;;;19.50;99.90;;;;;;6144128;23;21016;-79
2023/05/04 08:39:18;;;;;;;9.33;7.10;;;19.70;99.90;;;;;;6140953;23;20465;-79
2023/05/04 08:41:45;;;;;;;6.63;6.10;;;19.80;99.90;;;;;;6137186;23;20827;-79
2023/05/04 08:44:12;;;;;;;11.70;6.73;;;19.80;99.90;;;;;;6144504;23;20451;-79
2023/05/04 08:46:41;;;;;;;7.90;7.10;;;20.00;99.90;;;;;;6147570;23;20522;-79
2023/05/04 08:49:10;;;;;;;10.17;6.70;;;20.00;99.90;;;;;;6140222;23;20445;-80
2023/05/04 08:51:37;;;;;;;8.00;6.80;;;20.30;99.90;;;;;;6138554;23;20507;-79
2023/05/04 08:54:08;;;;;;;7.60;6.90;;;20.20;99.90;;;;;;6143223;23;20811;-79
2023/05/04 08:56:37;;;;;;;7.40;6.70;;;20.20;99.90;;;;;;6143964;23;20527;-79
2023/05/04 08:59:06;;;;;;;5.70;5.30;;;20.10;99.90;;;;;;6143535;23;20456;-79
2023/05/04 09:01:34;;;;;;;6.50;6.00;;;20.20;99.90;;;;;;6138288;23;20518;-79
2023/05/04 09:04:03;;;;;;;6.70;6.20;;;20.30;99.90;;;;;;6137712;23;20813;-79
2023/05/04 09:06:32;;;;;;;6.40;5.90;;;20.20;99.00;;;;;;6141381;23;20432;-79
2023/05/04 09:08:58;;;;;;;6.70;6.27;;;19.70;99.90;;;;;;6147230;23;20439;-78
2023/05/04 09:11:26;;;;;;;5.93;5.53;;;19.60;99.90;;;;;;6143557;23;20444;-79
2023/05/04 09:13:53;;;;;;;8.63;6.07;;;19.70;99.80;;;;;;6140084;23;20539;-79
2023/05/04 09:16:20;;;;;;;5.73;5.23;;;19.50;99.90;;;;;;6140388;23;20853;-78
2023/05/04 09:18:47;;;;;;;6.60;6.00;;;19.80;99.70;;;;;;6144925;23;20550;-79
2023/05/04 09:21:15;;;;;;;5.03;4.63;;;20.10;99.40;;;;;;6141885;23;20528;-79
2023/05/04 09:23:48;;;;;;;16.20;6.50;;;20.50;99.20;;;;;;6146062;23;20460;-79
2023/05/04 09:26:25;;;;;;;5.40;5.00;;;20.90;97.40;;;;;;6132203;23;20432;-78
2023/05/04 09:28:52;;;;;;;6.10;4.73;;;21.00;96.80;;;;;;6140404;23;20463;-78
2023/05/04 09:31:19;;;;;;;5.60;5.10;;;20.90;97.20;;;;;;6136468;23;20451;-79
2023/05/04 09:33:46;;;;;;;5.40;4.90;;;21.10;96.60;;;;;;6142643;23;20481;-79
2023/05/04 09:36:15;;;;;;;6.20;4.80;;;21.50;96.60;;;;;;6138831;23;21010;-79
2023/05/04 09:38:42;;;;;;;6.37;4.80;;;21.80;95.50;;;;;;6141099;23;20443;-79
2023/05/04 09:41:10;;;;;;;4.83;4.43;;;21.90;95.50;;;;;;6143837;23;20498;-79
2023/05/04 09:43:39;;;;;;;5.83;4.87;;;22.00;94.80;;;;;;6145303;23;20463;-79
2023/05/04 09:46:07;;;;;;;4.80;4.43;;;22.10;94.20;;;;;;6135163;23;20439;-79
2023/05/04 09:48:35;;;;;;;4.90;4.60;;;22.40;93.70;;;;;;6140965;23;20442;-79
2023/05/04 09:51:05;;;;;;;4.77;4.43;;;22.40;94.10;;;;;;6144503;23;20437;-79
2023/05/04 09:53:32;;;;;;;4.50;4.20;;;22.20;92.50;;;;;;6143908;23;20463;-79
2023/05/04 09:56:09;;;;;;;4.97;4.23;;;21.70;93.50;;;;;;6143438;23;20437;-79
2023/05/04 09:58:39;;;;;;;5.67;5.10;;;21.80;93.80;;;;;;6139086;23;20518;-78
2023/05/04 10:01:07;;;;;;;7.20;5.40;;;22.20;92.70;;;;;;6141952;23;20533;-79
2023/05/04 10:03:34;;;;;;;4.50;4.20;;;22.40;91.90;;;;;;6141179;23;20760;-79
2023/05/04 10:06:05;;;;;;;9.90;5.30;;;22.70;91.50;;;;;;6144929;23;20440;-79
2023/05/04 10:08:32;;;;;;;8.03;4.47;;;23.00;92.30;;;;;;6143662;23;20460;-79
2023/05/04 10:10:59;;;;;;;18.47;6.17;;;23.10;91.90;;;;;;6145014;23;20441;-78
2023/05/04 10:13:27;;;;;;;16.93;6.03;;;23.40;91.10;;;;;;6143089;23;20594;-79
2023/05/04 10:16:14;;;;;;;22.63;6.40;;;23.60;90.10;;;;;;6129383;23;20800;-79
2023/05/04 10:19:01;;;;;;;5.00;4.60;;;23.70;89.30;;;;;;6144856;23;20852;-79
2023/05/04 10:21:33;;;;;;;3.70;3.50;;;23.80;86.20;;;;;;6139446;23;20432;-79
2023/05/04 10:24:20;;;;;;;4.50;4.20;;;23.70;88.30;;;;;;6145188;23;20547;-79
2023/05/04 10:26:59;;;;;;;4.60;4.20;;;24.10;86.60;;;;;;6140938;23;20447;-79
2023/05/04 10:29:28;;;;;;;3.83;3.53;;;24.50;85.40;;;;;;6138207;23;20435;-79
2023/05/04 10:31:58;;;;;;;4.40;4.00;;;23.90;84.20;;;;;;6145482;23;20523;-79
2023/05/04 10:34:28;;;;;;;3.87;3.57;;;24.10;85.50;;;;;;6137883;23;20475;-78
2023/05/04 10:36:56;;;;;;;4.40;4.00;;;24.00;84.80;;;;;;6146761;23;20436;-78
2023/05/04 10:39:24;;;;;;;4.20;3.90;;;23.80;82.20;;;;;;6143854;23;21427;-76
2023/05/04 10:42:00;;;;;;;4.70;4.30;;;23.10;85.40;;;;;;6138836;23;20441;-77
2023/05/04 10:44:28;;;;;;;4.60;4.30;;;23.00;82.80;;;;;;6141841;23;21000;-77
2023/05/04 10:47:02;;;;;;;4.70;4.20;;;22.60;80.70;;;;;;6140007;23;20439;-77
2023/05/04 10:49:29;;;;;;;4.60;4.30;;;22.70;82.80;;;;;;6141709;23;20520;-78
2023/05/04 10:52:11;;;;;;;4.07;3.77;;;23.00;81.50;;;;;;6138105;23;20429;-77
2023/05/04 10:54:40;;;;;;;4.10;3.80;;;23.40;79.90;;;;;;6141298;23;20498;-77
2023/05/04 10:57:09;;;;;;;4.33;3.93;;;23.50;79.20;;;;;;6144728;23;20978;-77
2023/05/04 10:59:36;;;;;;;3.30;3.10;;;23.70;79.40;;;;;;6142720;23;20465;-77
2023/05/04 11:02:07;;;;;;;3.87;3.60;;;23.80;79.50;;;;;;6143066;23;20443;-78
2023/05/04 11:04:35;;;;;;;3.60;3.40;;;24.00;77.20;;;;;;6134277;23;20777;-77
2023/05/04 11:07:03;;;;;;;7.43;3.40;;;24.20;78.90;;;;;;6141322;23;20436;-77
2023/05/04 11:09:36;;;;;;;4.10;3.30;;;24.00;78.60;;;;;;6145470;23;21129;-77
2023/05/04 11:12:03;;;;;;;3.77;3.47;;;24.10;78.00;;;;;;6146065;23;21014;-77
2023/05/04 11:14:31;;;;;;;4.30;3.87;;;23.80;77.90;;;;;;6144976;23;20439;-77
2023/05/04 11:17:09;;;;;;;4.07;3.60;;;24.00;75.40;;;;;;6142179;23;20478;-77
2023/05/04 11:19:48;;;;;;;4.07;3.77;;;24.20;73.70;;;;;;6138083;23;20833;-78
2023/05/04 11:22:15;;;;;;;3.97;3.67;;;24.30;73.30;;;;;;6144555;23;20437;-78
2023/05/04 11:24:45;;;;;;;3.97;3.57;;;24.40;74.30;;;;;;6142341;23;20531;-78
2023/05/04 11:27:21;;;;;;;4.10;3.80;;;24.50;73.30;;;;;;6143087;23;20489;-77
2023/05/04 11:29:58;;;;;;;4.20;3.80;;;24.40;73.20;;;;;;6148194;23;20450;-78
2023/05/04 11:32:37;;;;;;;3.87;3.63;;;24.80;73.20;;;;;;6146765;23;20519;-78
2023/05/04 11:35:08;;;;;;;4.00;3.70;;;25.20;69.30;;;;;;6136925;23;20983;-78
2023/05/04 11:37:39;;;;;;;4.03;3.73;;;25.40;69.40;;;;;;6144695;23;20453;-78
2023/05/04 11:40:10;;;;;;;4.63;4.23;;;25.50;69.20;;;;;;6142189;23;21235;-78
2023/05/04 11:42:38;;;;;;;4.07;3.77;;;25.30;68.10;;;;;;6135947;23;20839;-78
2023/05/04 11:45:09;;;;;;;4.30;4.00;;;25.40;69.20;;;;;;6141904;23;20432;-78
2023/05/04 11:47:38;;;;;;;4.13;3.83;;;25.60;68.70;;;;;;6135113;23;20448;-77
2023/05/04 11:50:07;;;;;;;4.37;3.97;;;25.90;67.00;;;;;;6137758;23;20519;-78
2023/05/04 11:52:35;;;;;;;3.13;2.93;;;26.20;67.00;;;;;;6136750;23;20467;-78
2023/05/04 11:55:03;;;;;;;3.43;3.13;;;26.70;65.50;;;;;;6140448;23;20449;-78
2023/05/04 11:57:31;;;;;;;3.30;3.10;;;26.60;66.20;;;;;;6142698;23;20439;-78
2023/05/04 11:59:58;;;;;;;6.07;3.20;;;26.10;67.70;;;;;;6138662;23;20959;-78
2023/05/04 12:02:25;;;;;;;3.80;3.50;;;26.50;67.60;;;;;;6141477;23;20457;-77
2023/05/04 12:04:54;;;;;;;4.10;3.80;;;26.30;65.70;;;;;;6141750;23;20801;-76
2023/05/04 12:07:21;;;;;;;3.80;3.50;;;26.10;64.20;;;;;;6137162;23;20845;-78
2023/05/04 12:09:49;;;;;;;4.33;3.30;;;25.80;64.00;;;;;;6142371;23;20433;-77
2023/05/04 12:12:19;;;;;;;3.93;3.60;;;26.00;65.20;;;;;;6137741;23;20517;-77
2023/05/04 12:14:55;;;;;;;3.40;3.20;;;26.20;63.50;;;;;;6132719;23;20443;-77
2023/05/04 12:17:23;;;;;;;3.73;3.43;;;26.20;64.10;;;;;;6140629;23;20472;-77
2023/05/04 12:19:51;;;;;;;3.60;3.40;;;26.20;65.20;;;;;;6140406;23;20515;-77
2023/05/04 12:22:26;;;;;;;4.00;3.70;;;25.90;64.60;;;;;;6139494;23;20463;-77
2023/05/04 12:24:53;;;;;;;4.17;3.90;;;25.90;63.90;;;;;;6143957;23;20444;-76
2023/05/04 12:27:20;;;;;;;4.60;4.20;;;26.10;62.80;;;;;;6140106;23;20443;-77
2023/05/04 12:29:47;;;;;;;3.47;3.27;;;26.30;61.50;;;;;;6138945;23;20430;-76
2023/05/04 12:32:14;;;;;;;3.50;3.30;;;26.70;62.60;;;;;;6134882;23;20461;-76
2023/05/04 12:34:41;;;;;;;4.10;3.70;;;27.20;61.90;;;;;;6135334;23;20439;-76
2023/05/04 12:37:09;;;;;;;3.80;3.43;;;27.50;61.30;;;;;;6139605;23;20900;-77
2023/05/04 12:39:38;;;;;;;4.40;4.00;;;27.90;59.90;;;;;;6142300;23;20440;-77
2023/05/04 12:42:05;;;;;;;4.97;3.53;;;27.90;59.20;;;;;;6140322;23;20500;-77
2023/05/04 12:44:33;;;;;;;4.93;4.47;;;27.80;60.80;;;;;;6137872;23;20465;-77
2023/05/04 12:47:00;;;;;;;3.97;3.67;;;28.00;59.30;;;;;;6135273;23;20519;-77
2023/05/04 12:49:27;;;;;;;3.60;3.40;;;28.20;57.70;;;;;;6127086;23;20440;-77
2023/05/04 12:51:54;;;;;;;4.00;3.70;;;28.50;58.50;;;;;;6140945;23;20440;-78